createdAt,value
2017-06-08T00:00:07.174Z,13.67
2017-06-08T00:04:07.418Z,13.58
2017-06-08T00:07:07.653Z,13.57
2017-06-08T00:08:07.353Z,13.59
2017-06-08T00:12:07.905Z,13.53
2017-06-08T00:14:07.808Z,13.49
2017-06-08T00:15:07.221Z,13.49
2017-06-08T00:21:07.797Z,13.41
2017-06-08T00:22:07.464Z,13.38
2017-06-08T00:23:07.208Z,13.32
2017-06-08T00:24:07.756Z,13.26
2017-06-08T00:25:07.404Z,13.23
2017-06-08T00:26:08.089Z,13.27
2017-06-08T00:27:07.731Z,13.30
2017-06-08T00:28:07.374Z,13.30
2017-06-08T00:29:08.047Z,13.31
2017-06-08T00:30:17.778Z,13.31
2017-06-08T00:31:07.453Z,13.24
2017-06-08T00:32:09.257Z,13.24
2017-06-08T00:33:07.725Z,13.29
2017-06-08T00:34:08.516Z,13.24
2017-06-08T00:35:08.188Z,13.25
2017-06-08T00:36:08.964Z,13.23
2017-06-08T00:37:08.524Z,13.23
2017-06-08T00:38:08.229Z,13.21
2017-06-08T00:39:08.894Z,13.17
2017-06-08T00:40:07.409Z,13.15
2017-06-08T00:41:08.198Z,13.16
2017-06-08T00:42:08.933Z,13.14
2017-06-08T00:43:07.455Z,13.13
2017-06-08T00:44:07.174Z,13.13
2017-06-08T00:45:08.885Z,13.13
2017-06-08T00:46:08.528Z,13.12
2017-06-08T00:47:07.086Z,13.09
2017-06-08T00:48:08.905Z,13.08
2017-06-08T00:49:07.432Z,13.09
2017-06-08T00:50:08.035Z,13.03
2017-06-08T00:51:08.906Z,13.05
2017-06-08T00:52:07.369Z,13.06
2017-06-08T00:53:09.297Z,13.06
2017-06-08T00:54:08.906Z,13.07
2017-06-08T00:55:08.463Z,13.05
2017-06-08T00:56:08.038Z,13.05
2017-06-08T00:57:07.828Z,13.04
2017-06-08T00:58:07.365Z,13.02
2017-06-08T00:59:09.514Z,13.01
2017-06-08T01:00:08.838Z,12.98
2017-06-08T01:01:07.355Z,12.92
2017-06-08T01:02:08.040Z,12.96
2017-06-08T01:03:08.744Z,12.98
2017-06-08T01:04:08.515Z,13.00
2017-06-08T01:05:09.180Z,12.96
2017-06-08T01:06:08.920Z,12.95
2017-06-08T01:07:08.464Z,12.96
2017-06-08T01:08:08.013Z,12.94
2017-06-08T01:09:07.655Z,12.92
2017-06-08T01:10:07.356Z,12.90
2017-06-08T01:11:09.314Z,12.89
2017-06-08T01:12:08.776Z,12.86
2017-06-08T01:13:08.471Z,12.85
2017-06-08T01:14:08.051Z,12.85
2017-06-08T01:15:07.827Z,12.83
2017-06-08T01:16:07.469Z,12.83
2017-06-08T01:17:07.249Z,12.83
2017-06-08T01:18:07.886Z,12.84
2017-06-08T01:19:08.649Z,12.87
2017-06-08T01:20:07.249Z,12.88
2017-06-08T01:21:07.947Z,12.85
2017-06-08T01:22:07.583Z,12.84
2017-06-08T01:23:07.227Z,12.89
2017-06-08T01:24:07.931Z,12.90
2017-06-08T01:25:07.553Z,12.88
2017-06-08T01:26:07.210Z,12.85
2017-06-08T01:27:07.919Z,12.88
2017-06-08T01:28:07.546Z,12.83
2017-06-08T01:29:07.205Z,12.82
2017-06-08T01:30:07.891Z,12.80
2017-06-08T01:31:08.635Z,12.80
2017-06-08T01:32:07.241Z,12.79
2017-06-08T01:33:07.838Z,12.73
2017-06-08T01:34:07.490Z,12.69
2017-06-08T01:35:07.161Z,12.64
2017-06-08T01:36:07.799Z,12.64
2017-06-08T01:37:07.530Z,12.66
2017-06-08T01:38:07.183Z,12.66
2017-06-08T01:39:07.833Z,12.70
2017-06-08T01:40:07.496Z,12.68
2017-06-08T01:41:07.099Z,12.70
2017-06-08T01:42:07.816Z,12.69
2017-06-08T01:43:07.469Z,12.70
2017-06-08T01:44:07.087Z,12.68
2017-06-08T01:45:07.827Z,12.65
2017-06-08T01:46:07.478Z,12.69
2017-06-08T01:47:07.141Z,12.65
2017-06-08T01:48:07.820Z,12.68
2017-06-08T01:49:07.446Z,12.71
2017-06-08T01:50:07.116Z,12.71
2017-06-08T01:51:07.805Z,12.71
2017-06-08T01:52:07.510Z,12.67
2017-06-08T01:53:07.129Z,12.63
2017-06-08T01:54:07.774Z,12.64
2017-06-08T01:55:07.397Z,12.65
2017-06-08T01:56:08.067Z,12.61
2017-06-08T01:57:07.720Z,12.62
2017-06-08T01:58:08.383Z,12.63
2017-06-08T01:59:08.038Z,12.61
2017-06-08T02:00:07.671Z,12.58
2017-06-08T02:01:07.365Z,12.57
2017-06-08T02:02:08.039Z,12.58
2017-06-08T02:03:07.672Z,12.54
2017-06-08T02:04:07.318Z,12.55
2017-06-08T02:05:09.085Z,12.57
2017-06-08T02:06:07.728Z,12.55
2017-06-08T02:07:08.420Z,12.57
2017-06-08T02:08:07.979Z,12.53
2017-06-08T02:09:07.676Z,12.50
2017-06-08T02:10:07.303Z,12.48
2017-06-08T02:11:11.042Z,12.46
2017-06-08T02:12:07.622Z,12.41
2017-06-08T02:14:07.906Z,12.44
2017-06-08T02:15:07.520Z,12.43
2017-06-08T02:16:07.229Z,12.47
2017-06-08T02:17:07.958Z,12.43
2017-06-08T02:18:07.704Z,12.42
2017-06-08T02:21:08.304Z,12.43
2017-06-08T02:22:09.069Z,12.42
2017-06-08T02:23:07.573Z,12.40
2017-06-08T02:24:07.232Z,12.39
2017-06-08T02:25:08.033Z,12.39
2017-06-08T02:26:08.826Z,12.37
2017-06-08T02:27:08.263Z,12.38
2017-06-08T02:29:07.669Z,12.36
2017-06-08T02:30:07.897Z,12.36
2017-06-08T02:34:08.480Z,12.27
2017-06-08T02:35:08.013Z,12.21
2017-06-08T02:36:08.772Z,12.15
2017-06-08T02:37:08.404Z,12.08
2017-06-08T02:38:07.949Z,12.08
2017-06-08T02:39:08.742Z,12.12
2017-06-08T02:40:08.310Z,12.17
2017-06-08T02:41:07.928Z,12.21
2017-06-08T02:42:08.670Z,12.20
2017-06-08T02:43:07.245Z,12.21
2017-06-08T02:44:09.073Z,12.20
2017-06-08T02:45:08.658Z,12.15
2017-06-08T02:46:07.208Z,12.16
2017-06-08T02:47:07.854Z,12.18
2017-06-08T02:48:08.617Z,12.15
2017-06-08T02:49:07.207Z,12.10
2017-06-08T02:50:09.064Z,12.11
2017-06-08T02:51:08.630Z,12.08
2017-06-08T02:52:08.273Z,12.10
2017-06-08T02:53:07.832Z,12.10
2017-06-08T02:54:07.526Z,12.11
2017-06-08T02:55:07.252Z,12.10
2017-06-08T02:56:07.918Z,12.12
2017-06-08T02:57:07.492Z,12.09
2017-06-08T02:59:07.603Z,12.06
2017-06-08T03:00:07.365Z,12.05
2017-06-08T03:01:08.062Z,12.08
2017-06-08T03:02:08.763Z,12.04
2017-06-08T03:03:07.311Z,12.04
2017-06-08T03:04:07.979Z,12.04
2017-06-08T03:05:07.679Z,12.04
2017-06-08T03:06:07.294Z,12.07
2017-06-08T03:07:07.094Z,12.04
2017-06-08T03:08:07.725Z,12.02
2017-06-08T03:09:07.396Z,12.05
2017-06-08T03:10:08.038Z,12.04
2017-06-08T03:12:07.857Z,11.91
2017-06-08T03:13:08.017Z,11.91
2017-06-08T03:14:08.741Z,11.86
2017-06-08T03:15:08.388Z,11.90
2017-06-08T03:16:08.023Z,11.91
2017-06-08T03:17:07.738Z,11.93
2017-06-08T03:18:08.694Z,11.93
2017-06-08T03:20:07.305Z,11.90
2017-06-08T03:21:08.888Z,11.91
2017-06-08T03:22:08.505Z,11.92
2017-06-08T03:23:07.074Z,11.94
2017-06-08T03:24:07.685Z,11.96
2017-06-08T03:25:08.464Z,11.94
2017-06-08T03:26:13.524Z,11.91
2017-06-08T03:27:08.838Z,11.92
2017-06-08T03:28:07.392Z,11.95
2017-06-08T03:29:08.154Z,11.91
2017-06-08T03:30:07.714Z,11.92
2017-06-08T03:31:12.679Z,11.94
2017-06-08T03:32:08.002Z,11.95
2017-06-08T03:33:07.678Z,11.92
2017-06-08T03:34:08.387Z,11.92
2017-06-08T03:35:07.981Z,11.93
2017-06-08T03:36:07.662Z,11.96
2017-06-08T03:37:07.374Z,11.96
2017-06-08T03:38:07.967Z,11.95
2017-06-08T03:39:07.562Z,11.94
2017-06-08T03:40:07.252Z,11.98
2017-06-08T03:41:09.006Z,11.95
2017-06-08T03:42:07.525Z,11.89
2017-06-08T03:43:07.234Z,11.86
2017-06-08T03:44:07.846Z,11.88
2017-06-08T03:45:07.512Z,11.92
2017-06-08T03:47:07.320Z,11.94
2017-06-08T03:48:08.929Z,11.90
2017-06-08T03:50:07.290Z,11.93
2017-06-08T03:51:09.118Z,11.88
2017-06-08T03:52:07.588Z,11.88
2017-06-08T03:53:07.290Z,11.90
2017-06-08T03:54:07.924Z,11.91
2017-06-08T03:55:07.587Z,11.93
2017-06-08T03:56:07.223Z,11.92
2017-06-08T03:57:07.914Z,11.90
2017-06-08T03:58:07.572Z,11.90
2017-06-08T03:59:07.182Z,11.88
2017-06-08T04:00:07.977Z,11.84
2017-06-08T04:02:07.221Z,11.72
2017-06-08T04:04:07.186Z,11.84
2017-06-08T04:06:07.517Z,11.83
2017-06-08T04:09:07.444Z,11.92
2017-06-08T04:10:07.688Z,11.91
2017-06-08T04:12:07.428Z,11.93
2017-06-08T04:14:07.212Z,11.86
2017-06-08T04:15:07.940Z,11.89
2017-06-08T04:18:07.847Z,11.93
2017-06-08T04:21:07.811Z,12.03
2017-06-08T04:22:08.549Z,11.92
2017-06-08T04:23:08.148Z,11.90
2017-06-08T04:24:08.863Z,11.90
2017-06-08T04:25:09.960Z,11.95
2017-06-08T04:26:08.949Z,11.92
2017-06-08T04:27:08.573Z,11.91
2017-06-08T04:28:08.212Z,11.97
2017-06-08T04:29:08.851Z,12.01
2017-06-08T04:30:08.452Z,12.02
2017-06-08T04:31:08.270Z,12.04
2017-06-08T04:34:14.065Z,11.90
2017-06-08T04:35:07.082Z,11.86
2017-06-08T04:41:07.491Z,12.05
2017-06-08T04:42:07.136Z,12.09
2017-06-08T04:43:08.903Z,12.12
2017-06-08T04:44:08.596Z,12.13
2017-06-08T04:45:08.237Z,12.14
2017-06-08T04:46:07.852Z,12.15
2017-06-08T04:47:07.483Z,12.13
2017-06-08T04:48:07.156Z,12.15
2017-06-08T04:49:08.862Z,12.14
2017-06-08T04:50:07.460Z,12.15
2017-06-08T04:51:07.176Z,12.20
2017-06-08T04:52:07.800Z,12.19
2017-06-08T04:53:08.009Z,12.23
2017-06-08T04:54:07.670Z,12.27
2017-06-08T04:55:08.432Z,12.26
2017-06-08T04:56:08.057Z,12.20
2017-06-08T04:57:07.703Z,12.20
2017-06-08T04:58:07.358Z,12.29
2017-06-08T04:59:07.984Z,12.32
2017-06-08T05:00:07.653Z,12.28
2017-06-08T05:01:08.374Z,12.31
2017-06-08T05:02:07.960Z,12.32
2017-06-08T05:03:07.628Z,12.35
2017-06-08T05:04:07.311Z,12.41
2017-06-08T05:05:07.936Z,12.44
2017-06-08T05:06:08.803Z,12.47
2017-06-08T05:07:07.297Z,12.51
2017-06-08T05:08:07.929Z,12.54
2017-06-08T05:09:07.645Z,12.57
2017-06-08T05:10:08.306Z,12.58
2017-06-08T05:11:07.960Z,12.59
2017-06-08T05:12:07.572Z,12.62
2017-06-08T05:13:07.685Z,12.62
2017-06-08T05:18:08.262Z,12.66
2017-06-08T05:19:07.758Z,12.67
2017-06-08T05:20:07.437Z,12.66
2017-06-08T05:24:08.044Z,12.67
2017-06-08T05:25:07.637Z,12.69
2017-06-08T05:26:07.331Z,12.71
2017-06-08T05:27:07.984Z,12.72
2017-06-08T05:30:07.838Z,12.82
2017-06-08T05:34:07.097Z,12.89
2017-06-08T05:37:08.278Z,12.95
2017-06-08T05:39:07.118Z,12.99
2017-06-08T05:40:07.749Z,13.01
2017-06-08T05:49:07.114Z,13.14
2017-06-08T05:53:07.228Z,13.24
2017-06-08T05:54:07.955Z,13.25
2017-06-08T05:56:08.970Z,13.32
2017-06-08T05:57:07.518Z,13.35
2017-06-08T05:58:08.260Z,13.36
2017-06-08T05:59:08.961Z,13.37
2017-06-08T06:00:07.478Z,13.38
2017-06-08T06:01:07.172Z,13.38
2017-06-08T06:02:08.899Z,13.42
2017-06-08T06:03:08.562Z,13.44
2017-06-08T06:04:07.140Z,13.48
2017-06-08T06:05:08.849Z,13.50
2017-06-08T06:06:08.502Z,13.51
2017-06-08T06:07:07.054Z,13.52
2017-06-08T06:08:08.773Z,13.54
2017-06-08T06:09:08.442Z,13.57
2017-06-08T06:10:09.105Z,13.57
2017-06-08T06:11:08.734Z,13.61
2017-06-08T06:12:07.319Z,13.62
2017-06-08T06:13:07.984Z,13.64
2017-06-08T06:15:09.030Z,13.70
2017-06-08T06:16:07.459Z,13.73
2017-06-08T06:17:08.257Z,13.74
2017-06-08T06:18:07.948Z,13.75
2017-06-08T06:19:07.654Z,13.76
2017-06-08T06:20:07.262Z,13.78
2017-06-08T06:24:08.042Z,13.87
2017-06-08T06:25:07.593Z,13.87
2017-06-08T06:26:07.295Z,13.88
2017-06-08T06:27:07.940Z,13.90
2017-06-08T06:28:08.669Z,13.93
2017-06-08T06:29:08.377Z,13.93
2017-06-08T06:30:09.004Z,13.95
2017-06-08T06:31:07.575Z,13.97
2017-06-08T06:32:08.313Z,13.99
2017-06-08T06:33:09.130Z,14.02
2017-06-08T06:34:07.630Z,14.04
2017-06-08T06:35:08.364Z,14.04
2017-06-08T06:36:07.931Z,14.04
2017-06-08T06:37:08.670Z,14.05
2017-06-08T06:38:07.217Z,14.07
2017-06-08T06:39:08.983Z,14.08
2017-06-08T06:40:07.578Z,14.10
2017-06-08T06:41:08.363Z,14.11
2017-06-08T06:42:07.875Z,14.12
2017-06-08T06:43:08.676Z,14.14
2017-06-08T06:44:07.225Z,14.16
2017-06-08T06:45:08.944Z,14.18
2017-06-08T06:46:08.861Z,14.18
2017-06-08T06:47:08.280Z,14.20
2017-06-08T06:48:08.204Z,14.23
2017-06-08T06:49:08.883Z,14.24
2017-06-08T06:50:07.425Z,14.25
2017-06-08T06:51:07.084Z,14.26
2017-06-08T06:52:07.735Z,14.27
2017-06-08T06:53:07.473Z,14.29
2017-06-08T06:54:07.032Z,14.32
2017-06-08T06:55:07.746Z,14.31
2017-06-08T06:56:07.322Z,14.32
2017-06-08T06:57:08.004Z,14.33
2017-06-08T06:58:07.635Z,14.35
2017-06-08T06:59:08.432Z,14.38
2017-06-08T07:00:07.029Z,14.40
2017-06-08T07:01:08.808Z,14.43
2017-06-08T07:02:08.477Z,14.43
2017-06-08T07:03:09.109Z,14.43
2017-06-08T07:04:08.809Z,14.44
2017-06-08T07:05:08.423Z,14.45
2017-06-08T07:06:09.046Z,14.48
2017-06-08T07:07:07.625Z,14.50
2017-06-08T07:08:08.430Z,14.50
2017-06-08T07:09:09.010Z,14.51
2017-06-08T07:10:08.653Z,14.51
2017-06-08T07:11:08.336Z,14.51
2017-06-08T07:12:08.901Z,14.50
2017-06-08T07:14:07.419Z,14.53
2017-06-08T07:15:08.116Z,14.56
2017-06-08T07:16:07.714Z,14.59
2017-06-08T07:17:07.420Z,14.60
2017-06-08T07:18:07.137Z,14.63
2017-06-08T07:19:07.839Z,14.65
2017-06-08T07:20:08.575Z,14.64
2017-06-08T07:21:07.139Z,14.65
2017-06-08T07:22:07.920Z,14.66
2017-06-08T07:23:07.543Z,14.65
2017-06-08T07:24:07.256Z,14.67
2017-06-08T07:26:07.661Z,14.70
2017-06-08T07:27:07.191Z,14.72
2017-06-08T07:28:07.849Z,14.74
2017-06-08T07:29:07.586Z,14.76
2017-06-08T07:30:07.199Z,14.78
2017-06-08T07:31:07.883Z,14.79
2017-06-08T07:32:08.625Z,14.81
2017-06-08T07:33:07.162Z,14.82
2017-06-08T07:34:07.866Z,14.84
2017-06-08T07:35:07.455Z,14.84
2017-06-08T07:36:07.150Z,14.84
2017-06-08T07:37:07.810Z,14.87
2017-06-08T07:38:07.471Z,14.87
2017-06-08T07:39:07.225Z,14.88
2017-06-08T07:40:07.798Z,14.90
2017-06-08T07:41:07.438Z,14.92
2017-06-08T07:42:07.123Z,14.93
2017-06-08T07:43:07.775Z,14.94
2017-06-08T07:44:07.436Z,14.95
2017-06-08T07:45:07.031Z,14.96
2017-06-08T07:46:07.749Z,14.96
2017-06-08T07:47:07.407Z,14.97
2017-06-08T07:48:07.137Z,14.98
2017-06-08T07:51:07.117Z,15.00
2017-06-08T07:53:08.271Z,15.03
2017-06-08T07:55:07.869Z,15.07
2017-06-08T07:56:08.729Z,15.09
2017-06-08T07:57:07.226Z,15.08
2017-06-08T07:58:09.053Z,15.10
2017-06-08T07:59:08.716Z,15.11
2017-06-08T08:00:07.258Z,15.12
2017-06-08T08:01:07.926Z,15.13
2017-06-08T08:02:07.658Z,15.14
2017-06-08T08:03:07.241Z,15.14
2017-06-08T08:04:07.913Z,15.16
2017-06-08T08:05:07.668Z,15.17
2017-06-08T08:06:07.461Z,15.21
2017-06-08T08:07:08.018Z,15.25
2017-06-08T08:08:07.625Z,15.29
2017-06-08T08:09:07.328Z,15.30
2017-06-08T08:10:07.120Z,15.29
2017-06-08T08:11:07.710Z,15.28
2017-06-08T08:12:07.820Z,15.29
2017-06-08T08:13:07.063Z,15.30
2017-06-08T08:14:07.794Z,15.29
2017-06-08T08:15:07.490Z,15.31
2017-06-08T08:16:07.168Z,15.34
2017-06-08T08:17:08.993Z,15.35
2017-06-08T08:18:08.687Z,15.36
2017-06-08T08:19:07.443Z,15.38
2017-06-08T08:20:08.171Z,15.40
2017-06-08T08:21:08.906Z,15.40
2017-06-08T08:22:08.618Z,15.42
2017-06-08T08:23:08.231Z,15.44
2017-06-08T08:24:08.850Z,15.43
2017-06-08T08:25:07.437Z,15.45
2017-06-08T08:26:08.178Z,15.48
2017-06-08T08:27:08.866Z,15.47
2017-06-08T08:28:07.477Z,15.50
2017-06-08T08:29:08.149Z,15.51
2017-06-08T08:30:07.696Z,15.55
2017-06-08T08:31:07.376Z,15.59
2017-06-08T08:32:07.029Z,15.60
2017-06-08T08:33:08.845Z,15.61
2017-06-08T08:34:08.482Z,15.64
2017-06-08T08:35:07.075Z,15.65
2017-06-08T08:36:08.860Z,15.66
2017-06-08T08:37:07.388Z,15.67
2017-06-08T08:38:08.135Z,15.67
2017-06-08T08:39:07.709Z,15.70
2017-06-08T08:40:07.459Z,15.70
2017-06-08T08:41:07.073Z,15.69
2017-06-08T08:42:08.790Z,15.71
2017-06-08T08:43:07.371Z,15.72
2017-06-08T08:44:09.123Z,15.75
2017-06-08T08:45:07.698Z,15.76
2017-06-08T08:46:07.339Z,15.79
2017-06-08T08:47:08.122Z,15.83
2017-06-08T08:48:08.807Z,15.84
2017-06-08T08:49:08.454Z,15.85
2017-06-08T08:50:08.059Z,15.88
2017-06-08T08:51:07.681Z,15.90
2017-06-08T08:52:07.345Z,15.92
2017-06-08T08:53:08.001Z,15.94
2017-06-08T08:54:07.878Z,15.97
2017-06-08T08:55:07.349Z,15.98
2017-06-08T08:56:07.956Z,16.00
2017-06-08T08:57:07.628Z,16.05
2017-06-08T08:58:08.371Z,16.11
2017-06-08T08:59:09.012Z,16.14
2017-06-08T09:00:07.617Z,16.16
2017-06-08T09:01:08.297Z,16.16
2017-06-08T09:02:07.904Z,16.19
2017-06-08T09:03:07.607Z,16.22
2017-06-08T09:04:07.285Z,16.24
2017-06-08T09:05:09.076Z,16.22
2017-06-08T09:06:08.719Z,16.25
2017-06-08T09:07:08.421Z,16.30
2017-06-08T09:08:09.042Z,16.32
2017-06-08T09:09:07.629Z,16.36
2017-06-08T09:10:07.347Z,16.46
2017-06-08T09:11:09.116Z,16.49
2017-06-08T09:12:08.726Z,16.51
2017-06-08T09:13:07.288Z,16.54
2017-06-08T09:14:08.015Z,16.55
2017-06-08T09:15:07.626Z,16.55
2017-06-08T09:16:07.361Z,16.55
2017-06-08T09:17:08.062Z,16.57
2017-06-08T09:18:07.808Z,16.58
2017-06-08T09:19:07.407Z,16.57
2017-06-08T09:20:07.072Z,16.57
2017-06-08T09:21:07.683Z,16.57
2017-06-08T09:22:07.383Z,16.59
2017-06-08T09:23:08.038Z,16.59
2017-06-08T09:24:07.656Z,16.61
2017-06-08T09:25:07.340Z,16.61
2017-06-08T09:26:08.022Z,16.61
2017-06-08T09:27:07.797Z,16.62
2017-06-08T09:28:07.451Z,16.63
2017-06-08T09:29:07.106Z,16.64
2017-06-08T09:30:07.766Z,16.66
2017-06-08T09:31:07.445Z,16.69
2017-06-08T09:32:07.118Z,16.70
2017-06-08T09:33:07.660Z,16.73
2017-06-08T09:34:07.367Z,16.73
2017-06-08T09:35:07.053Z,16.75
2017-06-08T09:36:07.735Z,16.79
2017-06-08T09:37:07.436Z,16.81
2017-06-08T09:38:08.034Z,16.84
2017-06-08T09:39:07.734Z,16.84
2017-06-08T09:40:07.329Z,16.81
2017-06-08T09:41:08.043Z,16.81
2017-06-08T09:42:07.740Z,16.83
2017-06-08T09:43:07.387Z,16.86
2017-06-08T09:44:07.070Z,16.89
2017-06-08T09:45:07.807Z,16.92
2017-06-08T09:46:07.395Z,16.97
2017-06-08T09:47:07.073Z,17.05
2017-06-08T09:48:07.466Z,17.51
2017-06-08T09:49:07.106Z,17.69
2017-06-08T09:51:08.996Z,17.95
2017-06-08T10:13:07.339Z,18.44
2017-06-08T10:14:09.042Z,18.47
2017-06-08T10:15:07.313Z,18.47
2017-06-08T10:16:07.968Z,18.47
2017-06-08T10:18:07.109Z,18.46
2017-06-08T10:19:07.721Z,18.50
2017-06-08T10:20:08.474Z,18.52
2017-06-08T10:45:10.364Z,18.37
2017-06-08T11:06:08.092Z,18.88
2017-06-08T11:07:07.853Z,18.88
2017-06-08T11:08:13.969Z,18.95
2017-06-08T11:10:08.332Z,18.97
2017-06-08T11:11:15.413Z,19.07
2017-06-08T11:12:08.654Z,19.08
2017-06-08T11:13:07.220Z,19.16
2017-06-08T11:14:08.998Z,19.10
2017-06-08T11:15:07.548Z,19.08
2017-06-08T11:16:08.279Z,19.10
2017-06-08T11:17:08.982Z,19.08
2017-06-08T11:18:13.177Z,19.09
2017-06-08T11:19:07.425Z,19.18
2017-06-08T11:20:09.082Z,19.21
2017-06-08T11:21:08.786Z,19.29
2017-06-08T11:22:07.338Z,19.30
2017-06-08T11:23:08.016Z,19.27
2017-06-08T11:24:08.709Z,19.25
2017-06-08T16:06:08.602Z,32.02
2017-06-08T16:07:07.090Z,31.84
2017-06-08T16:08:07.735Z,31.84
2017-06-08T16:09:08.479Z,31.68
2017-06-08T16:10:09.114Z,31.46
2017-06-08T16:11:08.781Z,31.35
2017-06-08T16:12:08.454Z,31.49
2017-06-08T16:13:09.078Z,31.63
2017-06-08T16:14:08.745Z,31.94
2017-06-08T16:15:08.382Z,32.18
2017-06-08T16:16:07.979Z,32.22
2017-06-08T16:17:08.713Z,31.72
2017-06-08T16:18:08.508Z,31.57
2017-06-08T16:19:08.123Z,31.26
2017-06-08T16:20:07.743Z,31.06
2017-06-08T16:21:08.486Z,30.78
2017-06-08T16:22:08.078Z,30.98
2017-06-08T16:23:08.793Z,31.29
2017-06-08T16:24:08.540Z,31.54
2017-06-08T16:25:09.119Z,31.76
2017-06-08T16:26:08.824Z,32.00
2017-06-08T16:27:07.367Z,31.74
2017-06-08T16:28:09.081Z,31.39
2017-06-08T16:29:08.722Z,31.23
2017-06-08T16:30:08.399Z,31.06
2017-06-08T16:31:07.995Z,31.11
2017-06-08T16:32:08.775Z,30.93
2017-06-08T16:33:08.423Z,31.12
2017-06-08T16:34:09.088Z,31.12
2017-06-08T16:35:08.694Z,31.50
2017-06-08T16:36:07.287Z,31.65
2017-06-08T16:37:09.015Z,31.62
2017-06-08T16:38:07.717Z,31.35
2017-06-08T16:39:08.378Z,30.99
2017-06-08T16:40:09.459Z,30.84
2017-06-08T16:41:09.473Z,30.77
2017-06-08T16:42:08.587Z,30.65
2017-06-08T16:43:07.912Z,30.53
2017-06-08T16:44:08.669Z,30.49
2017-06-08T16:45:07.267Z,30.50
2017-06-08T16:46:08.988Z,30.70
2017-06-08T16:47:08.698Z,30.85
2017-06-08T16:48:13.870Z,30.69
2017-06-08T16:49:08.979Z,30.44
2017-06-08T16:50:08.688Z,30.08
2017-06-08T16:51:08.272Z,29.91
2017-06-08T16:52:08.957Z,29.73
2017-06-08T16:53:08.611Z,29.75
2017-06-08T16:54:08.225Z,29.60
2017-06-08T16:55:08.838Z,29.62
2017-06-08T16:56:08.522Z,29.67
2017-06-08T16:57:07.090Z,29.86
2017-06-08T16:58:08.870Z,29.94
2017-06-08T16:59:08.480Z,29.75
2017-06-08T17:00:08.123Z,29.48
2017-06-08T17:01:08.776Z,29.27
2017-06-08T17:02:08.414Z,29.16
2017-06-08T17:03:07.978Z,29.02
2017-06-08T17:04:08.707Z,28.87
2017-06-08T17:05:08.441Z,28.56
2017-06-08T17:06:09.075Z,28.37
2017-06-08T17:07:07.619Z,28.04
2017-06-08T17:08:07.338Z,27.67
2017-06-08T17:09:07.997Z,27.38
2017-06-08T17:10:07.601Z,27.14
2017-06-08T17:11:07.264Z,27.00
2017-06-08T17:12:07.891Z,26.74
2017-06-08T17:13:07.590Z,26.42
2017-06-08T17:14:07.262Z,26.21
2017-06-08T17:15:07.901Z,26.13
2017-06-08T17:16:07.580Z,25.94
2017-06-08T17:17:07.312Z,25.77
2017-06-08T17:18:07.061Z,25.60
2017-06-08T17:19:13.239Z,25.49
2017-06-08T17:20:07.330Z,25.38
2017-06-08T17:21:07.991Z,25.11
2017-06-08T17:22:08.260Z,24.96
2017-06-08T17:23:08.907Z,24.94
2017-06-08T17:24:07.446Z,24.85
2017-06-08T17:25:07.067Z,24.72
2017-06-08T17:26:07.739Z,24.69
2017-06-08T17:27:07.390Z,24.63
2017-06-08T17:28:07.084Z,24.63
2017-06-08T17:29:07.779Z,24.54
2017-06-08T17:30:07.381Z,24.49
2017-06-08T17:31:08.007Z,24.46
2017-06-08T17:32:07.154Z,24.43
2017-06-08T17:33:07.829Z,24.30
2017-06-08T17:34:07.627Z,24.21
2017-06-08T17:35:07.135Z,24.19
2017-06-08T17:36:07.859Z,24.14
2017-06-08T17:37:07.689Z,24.05
2017-06-08T17:38:07.256Z,23.94
2017-06-08T17:39:07.937Z,23.95
2017-06-08T17:40:07.570Z,23.95
2017-06-08T17:41:07.612Z,23.84
2017-06-08T17:42:07.898Z,23.75
2017-06-08T17:43:08.598Z,23.76
2017-06-08T17:44:07.221Z,23.76
2017-06-08T17:45:07.804Z,23.69
2017-06-08T17:46:07.438Z,23.62
2017-06-08T17:47:08.171Z,23.63
2017-06-08T17:48:07.722Z,23.64
2017-06-08T17:49:07.414Z,23.61
2017-06-08T17:50:07.036Z,23.47
2017-06-08T17:51:07.716Z,23.39
2017-06-08T17:52:07.576Z,23.38
2017-06-08T17:53:07.273Z,23.31
2017-06-08T17:54:08.017Z,23.26
2017-06-08T17:55:07.526Z,23.23
2017-06-08T17:56:07.219Z,23.15
2017-06-08T17:57:07.820Z,23.17
2017-06-08T17:58:07.483Z,23.18
2017-06-08T17:59:07.242Z,23.14
2017-06-08T18:00:07.826Z,23.12
2017-06-08T18:01:07.482Z,23.13
2017-06-08T18:02:07.134Z,23.03
2017-06-08T18:03:07.780Z,23.03
2017-06-08T18:04:08.518Z,23.00
2017-06-08T18:05:07.062Z,22.94
2017-06-08T18:06:07.781Z,22.88
2017-06-08T18:07:07.488Z,22.88
2017-06-08T18:08:07.156Z,22.82
2017-06-08T18:09:07.901Z,22.78
2017-06-08T18:10:07.597Z,22.74
2017-06-08T18:11:07.238Z,22.79
2017-06-08T18:12:07.888Z,22.72
2017-06-08T18:13:07.552Z,22.71
2017-06-08T18:14:07.210Z,22.69
2017-06-08T18:15:07.891Z,22.66
2017-06-08T18:16:07.507Z,22.59
2017-06-08T18:17:07.270Z,22.59
2017-06-08T18:18:09.053Z,22.53
2017-06-08T18:19:07.628Z,22.50
2017-06-08T18:20:07.269Z,22.41
2017-06-08T18:21:07.912Z,22.43
2017-06-08T18:22:07.590Z,22.44
2017-06-08T18:23:07.243Z,22.42
2017-06-08T18:24:07.910Z,22.41
2017-06-08T18:25:07.550Z,22.31
2017-06-08T18:26:07.200Z,22.31
2017-06-08T18:27:07.837Z,22.31
2017-06-08T18:28:08.615Z,22.28
2017-06-08T18:29:07.186Z,22.29
2017-06-08T18:30:08.982Z,22.29
2017-06-08T18:31:07.492Z,22.27
2017-06-08T18:32:08.271Z,22.13
2017-06-08T18:33:07.837Z,22.09
2017-06-08T18:34:07.494Z,22.07
2017-06-08T18:35:07.173Z,22.10
2017-06-08T18:36:08.186Z,22.09
2017-06-08T18:37:08.590Z,22.04
2017-06-08T18:38:08.191Z,22.06
2017-06-08T18:39:18.340Z,22.01
2017-06-08T18:40:07.482Z,21.90
2017-06-08T18:41:07.199Z,21.86
2017-06-08T18:42:07.804Z,21.85
2017-06-08T18:43:07.463Z,21.85
2017-06-08T18:44:07.170Z,21.81
2017-06-08T18:45:07.796Z,21.77
2017-06-08T18:46:07.479Z,21.75
2017-06-08T18:47:07.109Z,21.68
2017-06-08T18:48:07.727Z,21.64
2017-06-08T18:49:07.373Z,21.67
2017-06-08T18:50:07.038Z,21.66
2017-06-08T18:51:07.717Z,21.58
2017-06-08T18:52:07.376Z,21.63
2017-06-08T18:53:07.080Z,21.61
2017-06-08T18:54:07.766Z,21.61
2017-06-08T18:55:07.702Z,21.60
2017-06-08T18:56:07.158Z,21.56
2017-06-08T18:57:07.752Z,21.51
2017-06-08T18:58:07.406Z,21.45
2017-06-08T18:59:07.066Z,21.48
2017-06-08T19:00:07.690Z,21.43
2017-06-08T19:01:07.324Z,21.41
2017-06-08T19:02:07.961Z,21.37
2017-06-08T19:03:07.664Z,21.26
2017-06-08T19:04:07.303Z,21.21
2017-06-08T19:05:09.060Z,21.24
2017-06-08T19:06:07.622Z,21.15
2017-06-08T19:07:07.233Z,21.12
2017-06-08T19:08:07.903Z,21.12
2017-06-08T19:09:08.625Z,21.10
2017-06-08T19:10:07.249Z,21.02
2017-06-08T19:11:07.908Z,20.99
2017-06-08T19:12:07.510Z,21.02
2017-06-08T19:13:08.226Z,20.88
2017-06-08T19:14:07.780Z,20.93
2017-06-08T19:15:07.470Z,20.89
2017-06-08T19:20:08.295Z,20.70
2017-06-08T19:21:14.362Z,20.71
2017-06-08T19:24:07.881Z,20.67
2017-06-08T19:26:08.863Z,20.59
2017-06-08T19:31:10.698Z,20.44
2017-06-08T19:33:12.940Z,20.35
2017-06-08T19:34:08.281Z,20.30
2017-06-08T19:35:08.910Z,20.39
2017-06-08T19:36:07.483Z,20.35
2017-06-08T19:37:07.189Z,20.35
2017-06-08T19:38:07.779Z,20.29
2017-06-08T19:39:08.542Z,20.21
2017-06-08T19:40:08.195Z,20.19
2017-06-08T19:41:08.864Z,20.26
2017-06-08T19:42:08.563Z,20.23
2017-06-08T19:43:07.101Z,20.23
2017-06-08T19:44:07.714Z,20.24
2017-06-08T19:45:07.316Z,20.10
2017-06-08T19:46:07.981Z,20.07
2017-06-08T19:47:07.694Z,20.01
2017-06-08T19:48:08.406Z,20.03
2017-06-08T19:49:08.006Z,20.02
2017-06-08T19:52:08.185Z,19.95
2017-06-08T19:54:08.993Z,19.84
2017-06-08T20:14:08.266Z,19.22
2017-06-08T20:19:08.583Z,19.13
2017-06-08T20:20:08.336Z,19.09
2017-06-08T20:21:09.111Z,19.02
2017-06-08T20:23:08.887Z,19.07
2017-06-08T20:26:08.707Z,18.85
2017-06-08T20:30:08.006Z,18.62
2017-06-08T20:34:07.313Z,18.52
2017-06-08T20:36:07.400Z,18.40
2017-06-08T20:37:07.062Z,18.41
2017-06-08T20:38:07.739Z,18.40
2017-06-08T20:39:07.406Z,18.44
2017-06-08T20:40:07.082Z,18.34
2017-06-08T20:45:08.009Z,18.27
2017-06-08T20:48:07.895Z,18.19
2017-06-08T20:49:07.592Z,18.15
2017-06-08T20:51:07.986Z,18.12
2017-06-08T20:53:07.055Z,18.22
2017-06-08T20:58:07.947Z,17.96
2017-06-08T21:00:07.742Z,17.95
2017-06-08T21:03:07.611Z,17.94
2017-06-08T21:04:08.888Z,17.84
2017-06-08T21:06:08.679Z,17.71